createdAt,value
2023-04-15T00:00:04.274Z,10.90
2023-04-15T00:02:49.510Z,10.90
2023-04-15T00:05:26.314Z,10.90
2023-04-15T00:08:02.360Z,10.90
2023-04-15T00:10:38.654Z,10.90
2023-04-15T00:13:15.541Z,10.90
2023-04-15T00:15:52.437Z,10.90
2023-04-15T00:18:30.104Z,11.00
2023-04-15T00:21:07.550Z,11.00
2023-04-15T00:23:43.396Z,11.00
2023-04-15T00:26:20.395Z,11.00
2023-04-15T00:28:57.012Z,11.10
2023-04-15T00:31:32.390Z,11.10
2023-04-15T00:34:09.911Z,11.10
2023-04-15T00:36:44.828Z,11.10
2023-04-15T00:39:21.252Z,11.10
2023-04-15T00:41:58.403Z,11.10
2023-04-15T00:44:36.586Z,11.00
2023-04-15T00:47:14.059Z,11.00
2023-04-15T00:49:50.038Z,10.90
2023-04-15T00:52:27.820Z,10.90
2023-04-15T00:55:04.888Z,10.80
2023-04-15T00:57:41.432Z,10.80
2023-04-15T01:00:21.207Z,10.70
2023-04-15T01:02:57.280Z,10.64
2023-04-15T01:05:34.818Z,10.58
2023-04-15T01:08:12.442Z,10.50
2023-04-15T01:10:48.930Z,10.50
2023-04-15T01:13:25.087Z,10.42
2023-04-15T01:16:01.748Z,10.40
2023-04-15T01:18:37.702Z,10.40
2023-04-15T01:21:15.091Z,10.30
2023-04-15T01:23:51.782Z,10.30
2023-04-15T01:26:29.082Z,10.30
2023-04-15T01:29:05.017Z,10.30
2023-04-15T01:31:42.366Z,10.30
2023-04-15T01:34:18.368Z,10.30
2023-04-15T01:36:54.597Z,10.30
2023-04-15T01:39:32.316Z,10.30
2023-04-15T01:42:08.434Z,10.30
2023-04-15T01:44:44.493Z,10.24
2023-04-15T01:47:20.857Z,10.20
2023-04-15T01:49:57.213Z,10.20
2023-04-15T01:52:32.990Z,10.20
2023-04-15T01:55:11.916Z,10.20
2023-04-15T01:57:48.970Z,10.20
2023-04-15T02:00:27.255Z,10.20
2023-04-15T02:03:03.452Z,10.20
2023-04-15T02:05:39.353Z,10.20
2023-04-15T02:08:15.805Z,10.20
2023-04-15T02:10:52.087Z,10.20
2023-04-15T02:13:27.988Z,10.20
2023-04-15T02:16:05.460Z,10.20
2023-04-15T02:18:41.734Z,10.18
2023-04-15T02:21:19.332Z,10.20
2023-04-15T02:23:56.740Z,10.20
2023-04-15T02:26:33.950Z,10.14
2023-04-15T02:29:10.060Z,10.10
2023-04-15T02:31:46.418Z,10.10
2023-04-15T02:34:27.681Z,10.10
2023-04-15T02:37:06.085Z,10.10
2023-04-15T02:39:45.283Z,10.08
2023-04-15T02:42:21.894Z,10.00
2023-04-15T02:44:58.472Z,10.00
2023-04-15T02:47:38.447Z,10.00
2023-04-15T02:50:18.343Z,9.90
2023-04-15T02:52:54.410Z,9.90
2023-04-15T02:55:30.721Z,9.90
2023-04-15T02:58:06.826Z,9.80
2023-04-15T03:00:43.152Z,9.74
2023-04-15T03:03:19.686Z,9.70
2023-04-15T03:05:56.585Z,9.70
2023-04-15T03:08:33.665Z,9.66
2023-04-15T03:11:11.036Z,9.60
2023-04-15T03:13:47.670Z,9.60
2023-04-15T03:16:33.388Z,9.60
2023-04-15T03:19:09.439Z,9.64
2023-04-15T03:21:48.385Z,9.60
2023-04-15T03:24:27.473Z,9.70
2023-04-15T03:27:06.541Z,9.60
2023-04-15T03:29:44.789Z,9.50
2023-04-15T03:32:21.949Z,9.50
2023-04-15T03:34:58.432Z,9.50
2023-04-15T03:37:35.788Z,9.50
2023-04-15T03:40:19.322Z,9.42
2023-04-15T03:42:56.857Z,9.40
2023-04-15T03:45:33.982Z,9.40
2023-04-15T03:48:17.699Z,9.30
2023-04-15T03:50:54.803Z,9.24
2023-04-15T03:53:31.187Z,9.20
2023-04-15T03:56:08.137Z,9.20
2023-04-15T03:58:45.416Z,9.20
2023-04-15T04:01:23.556Z,9.12
2023-04-15T04:03:59.942Z,9.10
2023-04-15T04:06:37.159Z,9.10
2023-04-15T04:09:14.050Z,9.10
2023-04-15T04:11:49.956Z,9.12
2023-04-15T04:14:30.182Z,9.10
2023-04-15T04:17:07.143Z,9.18
2023-04-15T04:19:43.588Z,9.10
2023-04-15T04:22:20.801Z,9.02
2023-04-15T04:24:59.600Z,8.90
2023-04-15T04:27:39.709Z,8.90
2023-04-15T04:30:20.186Z,8.82
2023-04-15T04:35:37.883Z,8.86
2023-04-15T04:38:14.737Z,8.90
2023-04-15T04:40:53.897Z,8.88
2023-04-15T04:43:30.709Z,8.82
2023-04-15T04:46:08.557Z,8.80
2023-04-15T04:48:47.069Z,8.78
2023-04-15T04:51:23.308Z,8.70
2023-04-15T04:54:01.270Z,8.66
2023-04-15T04:56:40.639Z,8.60
2023-04-15T04:59:19.441Z,8.70
2023-04-15T05:01:57.103Z,8.70
2023-04-15T05:04:33.729Z,8.80
2023-04-15T05:07:10.450Z,8.80
2023-04-15T05:09:47.395Z,8.86
2023-04-15T05:12:23.597Z,8.80
2023-04-15T05:15:00.590Z,8.80
2023-04-15T05:17:38.469Z,8.80
2023-04-15T05:20:21.701Z,8.80
2023-04-15T05:22:58.095Z,8.90
2023-04-15T05:25:34.455Z,8.90
2023-04-15T05:28:11.532Z,8.90
2023-04-15T05:30:49.460Z,8.90
2023-04-15T05:33:26.900Z,8.80
2023-04-15T05:36:03.798Z,8.90
2023-04-15T05:38:40.199Z,9.10
2023-04-15T05:41:19.770Z,9.30
2023-04-15T05:43:56.846Z,9.46
2023-04-15T05:46:33.509Z,9.60
2023-04-15T05:49:10.165Z,9.80
2023-04-15T05:51:46.519Z,9.90
2023-04-15T05:54:23.573Z,10.02
2023-04-15T05:57:01.309Z,10.20
2023-04-15T05:59:38.950Z,10.38
2023-04-15T06:02:17.236Z,10.50
2023-04-15T06:04:54.095Z,10.60
2023-04-15T06:07:31.616Z,10.80
2023-04-15T06:10:08.636Z,10.90
2023-04-15T06:12:45.195Z,11.00
2023-04-15T06:15:21.854Z,11.10
2023-04-15T06:17:58.720Z,11.26
2023-04-15T06:20:35.538Z,11.38
2023-04-15T06:23:13.048Z,11.40
2023-04-15T06:25:49.293Z,11.40
2023-04-15T06:28:26.356Z,11.50
2023-04-15T06:31:03.904Z,11.70
2023-04-15T06:33:40.328Z,11.80
2023-04-15T06:36:18.017Z,11.90
2023-04-15T06:38:55.168Z,12.10
2023-04-15T06:41:32.373Z,12.20
2023-04-15T06:44:10.435Z,12.30
2023-04-15T06:46:47.671Z,12.50
2023-04-15T06:49:24.771Z,12.68
2023-04-15T06:52:01.115Z,12.80
2023-04-15T06:54:37.337Z,12.90
2023-04-15T06:57:14.554Z,13.00
2023-04-15T06:59:51.907Z,13.10
2023-04-15T07:02:29.800Z,13.20
2023-04-15T07:05:07.089Z,13.30
2023-04-15T07:07:44.236Z,13.40
2023-04-15T07:10:23.933Z,13.50
2023-04-15T07:13:01.866Z,13.60
2023-04-15T07:15:38.981Z,13.76
2023-04-15T07:18:16.839Z,13.90
2023-04-15T07:20:53.840Z,14.00
2023-04-15T07:23:31.651Z,14.10
2023-04-15T07:26:09.773Z,14.20
2023-04-15T07:28:48.482Z,14.30
2023-04-15T07:31:24.419Z,14.40
2023-04-15T07:34:01.036Z,14.30
2023-04-15T07:36:37.812Z,14.30
2023-04-15T07:39:14.623Z,14.30
2023-04-15T07:41:51.976Z,14.30
2023-04-15T07:44:29.237Z,14.30
2023-04-15T07:47:07.967Z,14.40
2023-04-15T07:49:45.679Z,14.40
2023-04-15T07:52:22.894Z,14.44
2023-04-15T07:54:59.992Z,14.40
2023-04-15T07:57:36.591Z,14.40
2023-04-15T08:00:22.968Z,14.50
2023-04-15T08:03:01.470Z,14.58
2023-04-15T08:05:37.801Z,14.66
2023-04-15T08:08:14.946Z,14.70
2023-04-15T08:10:52.906Z,14.80
2023-04-15T08:13:29.399Z,14.80
2023-04-15T08:16:22.896Z,14.84
2023-04-15T08:19:01.158Z,14.90
2023-04-15T08:21:41.719Z,15.00
2023-04-15T08:24:18.800Z,15.10
2023-04-15T08:26:54.916Z,15.10
2023-04-15T08:29:31.162Z,15.10
2023-04-15T08:32:09.961Z,15.10
2023-04-15T08:34:46.526Z,15.20
2023-04-15T08:37:23.104Z,15.30
2023-04-15T08:39:59.319Z,15.40
2023-04-15T08:42:45.065Z,15.50
2023-04-15T08:45:23.663Z,15.50
2023-04-15T08:48:06.720Z,15.60
2023-04-15T08:50:43.851Z,15.60
2023-04-15T08:53:20.616Z,15.70
2023-04-15T08:56:02.651Z,15.70
2023-04-15T08:58:40.911Z,15.80
2023-04-15T09:01:17.267Z,15.90
2023-04-15T09:03:56.846Z,15.90
2023-04-15T09:06:36.722Z,16.00
2023-04-15T09:09:14.449Z,16.10
2023-04-15T09:11:51.793Z,16.18
2023-04-15T09:14:28.229Z,16.20
2023-04-15T09:17:09.726Z,16.20
2023-04-15T09:19:45.913Z,16.30
2023-04-15T09:22:26.305Z,16.30
2023-04-15T09:25:02.886Z,16.42
2023-04-15T09:27:52.808Z,16.50
2023-04-15T09:30:30.732Z,16.50
2023-04-15T09:33:09.092Z,16.60
2023-04-15T09:35:57.967Z,16.60
2023-04-15T09:38:36.223Z,16.60
2023-04-15T09:41:24.708Z,16.60
2023-04-15T09:44:01.721Z,16.60
2023-04-15T09:46:51.474Z,16.60
2023-04-15T09:49:28.614Z,16.70
2023-04-15T09:52:07.747Z,16.80
2023-04-15T09:54:44.758Z,16.90
2023-04-15T09:57:20.508Z,16.90
2023-04-15T09:59:58.549Z,17.00
2023-04-15T10:02:35.286Z,17.00
2023-04-15T10:05:16.444Z,17.10
2023-04-15T10:07:53.696Z,17.10
2023-04-15T10:10:30.402Z,17.20
2023-04-15T10:13:07.922Z,17.20
2023-04-15T10:15:52.038Z,17.26
2023-04-15T10:18:34.182Z,17.30
2023-04-15T10:21:14.416Z,17.40
2023-04-15T10:23:52.161Z,17.40
2023-04-15T10:26:31.309Z,17.50
2023-04-15T10:29:07.832Z,17.50
2023-04-15T10:31:45.792Z,17.60
2023-04-15T10:34:24.310Z,17.60
2023-04-15T10:37:04.684Z,17.50
2023-04-15T10:40:03.132Z,17.40
2023-04-15T10:42:43.155Z,17.50
2023-04-15T10:45:27.625Z,17.50
2023-04-15T10:48:08.087Z,17.60
2023-04-15T10:50:44.396Z,17.70
2023-04-15T10:53:38.391Z,17.76
2023-04-15T10:56:20.244Z,17.80
2023-04-15T10:58:57.755Z,17.70
2023-04-15T11:02:03.401Z,17.70
2023-04-15T11:05:02.932Z,17.80
2023-04-15T11:07:51.555Z,17.88
2023-04-15T11:10:59.688Z,17.62
2023-04-15T11:13:37.269Z,17.50
2023-04-15T11:16:14.021Z,17.60
2023-04-15T11:18:58.443Z,17.60
2023-04-15T11:21:36.703Z,17.60
2023-04-15T11:24:13.978Z,17.60
2023-04-15T11:26:51.260Z,17.60
2023-04-15T11:29:35.636Z,17.70
2023-04-15T11:32:15.718Z,17.80
2023-04-15T11:34:56.674Z,17.90
2023-04-15T11:37:37.694Z,17.90
2023-04-15T11:40:18.285Z,17.98
2023-04-15T11:43:08.450Z,18.00
2023-04-15T11:45:54.364Z,17.90
2023-04-15T11:48:33.476Z,18.00
2023-04-15T11:51:12.172Z,18.00
2023-04-15T11:53:57.059Z,18.00
2023-04-15T11:56:34.450Z,18.10
2023-04-15T11:59:11.254Z,18.24
2023-04-15T12:01:48.487Z,18.30
2023-04-15T12:04:26.086Z,18.40
2023-04-15T12:07:10.128Z,18.40
2023-04-15T12:09:57.634Z,18.58
2023-04-15T12:12:36.526Z,18.70
2023-04-15T12:15:18.040Z,18.70
2023-04-15T12:17:56.400Z,18.60
2023-04-15T12:20:35.776Z,18.50
2023-04-15T12:23:15.941Z,18.30
2023-04-15T12:25:55.938Z,18.20
2023-04-15T12:28:37.160Z,18.10
2023-04-15T12:31:17.171Z,18.00
2023-04-15T12:33:57.413Z,17.80
2023-04-15T12:36:37.770Z,17.70
2023-04-15T12:39:14.717Z,17.50
2023-04-15T12:41:51.575Z,17.40
2023-04-15T12:44:30.585Z,17.30
2023-04-15T12:47:07.680Z,17.20
2023-04-15T12:49:45.276Z,17.10
2023-04-15T12:52:22.119Z,17.00
2023-04-15T12:54:59.548Z,16.92
2023-04-15T12:57:36.713Z,16.90
2023-04-15T13:00:22.204Z,17.00
2023-04-15T13:02:59.232Z,17.20
2023-04-15T13:05:37.511Z,17.40
2023-04-15T13:08:15.346Z,17.60
2023-04-15T13:10:53.529Z,17.80
2023-04-15T13:13:32.044Z,17.80
2023-04-15T13:16:10.808Z,17.90
2023-04-15T13:18:50.020Z,17.90
2023-04-15T13:21:28.203Z,17.80
2023-04-15T13:24:05.384Z,17.80
2023-04-15T13:26:41.804Z,17.70
2023-04-15T13:29:19.264Z,17.60
2023-04-15T13:31:55.815Z,17.60
2023-04-15T13:34:32.343Z,17.60
2023-04-15T13:37:14.205Z,17.60
2023-04-15T13:39:50.769Z,17.70
2023-04-15T13:42:27.499Z,17.80
2023-04-15T13:45:03.992Z,18.00
2023-04-15T13:47:40.787Z,18.20
2023-04-15T13:50:20.175Z,18.34
2023-04-15T13:52:57.945Z,18.30
2023-04-15T13:55:35.721Z,18.40
2023-04-15T13:58:12.408Z,18.40
2023-04-15T14:00:48.974Z,18.30
2023-04-15T14:03:26.769Z,18.10
2023-04-15T14:06:04.051Z,18.04
2023-04-15T14:08:41.658Z,18.08
2023-04-15T14:11:18.130Z,18.10
2023-04-15T14:13:55.859Z,18.20
2023-04-15T14:16:33.062Z,18.30
2023-04-15T14:19:09.489Z,18.30
2023-04-15T14:21:47.224Z,18.30
2023-04-15T14:24:24.778Z,18.30
2023-04-15T14:27:02.900Z,18.20
2023-04-15T14:29:40.013Z,18.10
2023-04-15T14:32:17.353Z,18.00
2023-04-15T14:34:54.505Z,18.00
2023-04-15T14:37:30.948Z,17.94
2023-04-15T14:40:11.050Z,17.90
2023-04-15T14:42:49.422Z,17.90
2023-04-15T14:45:27.348Z,17.90
2023-04-15T14:48:07.536Z,17.90
2023-04-15T14:50:45.754Z,18.00
2023-04-15T14:53:22.712Z,18.00
2023-04-15T14:56:00.051Z,17.90
2023-04-15T14:58:36.952Z,17.70
2023-04-15T15:01:14.419Z,17.60
2023-04-15T15:03:51.831Z,17.50
2023-04-15T15:06:31.115Z,17.40
2023-04-15T15:09:08.069Z,17.50
2023-04-15T15:11:45.436Z,17.50
2023-04-15T15:14:25.249Z,17.50
2023-04-15T15:17:01.503Z,17.40
2023-04-15T15:19:37.924Z,17.30
2023-04-15T15:22:14.549Z,17.20
2023-04-15T15:24:50.105Z,17.10
2023-04-15T15:27:26.779Z,17.08
2023-04-15T15:30:04.157Z,17.00
2023-04-15T15:32:44.366Z,17.00
2023-04-15T15:35:22.975Z,17.00
2023-04-15T15:38:00.673Z,17.00
2023-04-15T15:40:37.359Z,17.00
2023-04-15T15:43:14.107Z,17.00
2023-04-15T15:45:51.822Z,16.90
2023-04-15T15:48:29.724Z,16.90
2023-04-15T15:51:06.519Z,16.90
2023-04-15T15:53:42.804Z,16.90
2023-04-15T15:56:19.374Z,16.82
2023-04-15T15:58:55.049Z,16.80
2023-04-15T16:01:32.451Z,16.80
2023-04-15T16:04:10.074Z,16.80
2023-04-15T16:06:47.393Z,16.80
2023-04-15T16:09:23.850Z,16.76
2023-04-15T16:12:00.496Z,16.70
2023-04-15T16:14:37.914Z,16.70
2023-04-15T16:17:13.800Z,16.60
2023-04-15T16:19:55.592Z,16.50
2023-04-15T16:22:39.082Z,16.46
2023-04-15T16:25:16.653Z,16.40
2023-04-15T16:28:00.899Z,16.40
2023-04-15T16:30:43.487Z,16.40
2023-04-15T16:33:20.729Z,16.40
2023-04-15T16:35:56.537Z,16.30
2023-04-15T16:38:31.796Z,16.30
2023-04-15T16:41:09.198Z,16.30
2023-04-15T16:43:46.646Z,16.20
2023-04-15T16:46:24.460Z,16.12
2023-04-15T16:49:01.234Z,16.10
2023-04-15T16:51:37.960Z,16.00
2023-04-15T16:54:14.509Z,15.98
2023-04-15T16:57:03.671Z,15.90
2023-04-15T16:59:44.645Z,15.90
2023-04-15T17:02:23.544Z,15.90
2023-04-15T17:05:00.056Z,15.80
2023-04-15T17:07:40.668Z,15.80
2023-04-15T17:10:21.104Z,15.80
2023-04-15T17:12:58.447Z,15.70
2023-04-15T17:15:35.520Z,15.70
2023-04-15T17:18:12.295Z,15.60
2023-04-15T17:20:49.185Z,15.60
2023-04-15T17:23:25.987Z,15.50
2023-04-15T17:26:03.652Z,15.40
2023-04-15T17:28:41.266Z,15.38
2023-04-15T17:31:17.440Z,15.28
2023-04-15T17:34:02.036Z,15.20
2023-04-15T17:36:47.864Z,15.10
2023-04-15T17:39:25.770Z,15.02
2023-04-15T17:42:04.201Z,15.00
2023-04-15T17:44:41.250Z,15.00
2023-04-15T17:47:18.380Z,15.00
2023-04-15T17:49:54.887Z,14.90
2023-04-15T17:52:32.216Z,14.90
2023-04-15T17:55:11.713Z,14.90
2023-04-15T17:57:49.256Z,14.90
2023-04-15T18:00:26.376Z,14.88
2023-04-15T18:03:02.886Z,14.80
2023-04-15T18:05:42.411Z,14.80
2023-04-15T18:08:19.076Z,14.70
2023-04-15T18:10:56.073Z,14.70
2023-04-15T18:13:33.295Z,14.60
2023-04-15T18:16:11.981Z,14.60
2023-04-15T18:18:48.161Z,14.50
2023-04-15T18:21:25.483Z,14.50
2023-04-15T18:24:00.799Z,14.50
2023-04-15T18:26:38.136Z,14.40
2023-04-15T18:29:15.009Z,14.40
2023-04-15T18:31:51.916Z,14.40
2023-04-15T18:34:28.514Z,14.30
2023-04-15T18:37:05.639Z,14.30
2023-04-15T18:39:42.377Z,14.30
2023-04-15T18:42:19.061Z,14.22
2023-04-15T18:44:55.690Z,14.20
2023-04-15T18:47:33.043Z,14.20
2023-04-15T18:50:12.179Z,14.10
2023-04-15T18:52:49.079Z,14.10
2023-04-15T18:55:27.784Z,14.10
2023-04-15T18:58:08.960Z,14.06
2023-04-15T19:00:46.346Z,14.00
2023-04-15T19:03:22.318Z,14.00
2023-04-15T19:05:59.281Z,14.00
2023-04-15T19:08:36.000Z,14.00
2023-04-15T19:11:13.722Z,13.96
2023-04-15T19:13:50.227Z,13.90
2023-04-15T19:16:26.539Z,13.90
2023-04-15T19:19:03.059Z,13.90
2023-04-15T19:21:40.156Z,13.90
2023-04-15T19:24:17.932Z,13.80
2023-04-15T19:26:57.325Z,13.80
2023-04-15T19:29:35.106Z,13.80
2023-04-15T19:32:14.244Z,13.72
2023-04-15T19:34:51.069Z,13.70
2023-04-15T19:37:28.592Z,13.70
2023-04-15T19:40:05.721Z,13.70
2023-04-15T19:42:43.287Z,13.64
2023-04-15T19:45:21.300Z,13.60
2023-04-15T19:47:58.489Z,13.62
2023-04-15T19:50:34.986Z,13.60
2023-04-15T19:53:11.920Z,13.66
2023-04-15T19:55:49.242Z,13.62
2023-04-15T19:58:26.260Z,13.66
2023-04-15T20:01:05.196Z,13.70
2023-04-15T20:03:44.188Z,13.70
2023-04-15T20:06:22.659Z,13.70
2023-04-15T20:08:59.461Z,13.70
2023-04-15T20:12:09.988Z,13.66
2023-04-15T20:14:33.393Z,13.60
2023-04-15T20:17:10.923Z,13.60
2023-04-15T20:19:47.993Z,13.60
2023-04-15T20:22:24.522Z,13.60
2023-04-15T20:25:01.097Z,13.60
2023-04-15T20:27:37.102Z,13.60
2023-04-15T20:30:18.732Z,13.60
2023-04-15T20:32:56.176Z,13.60
2023-04-15T20:35:33.366Z,13.58
2023-04-15T20:38:09.460Z,13.56
2023-04-15T20:40:45.752Z,13.58
2023-04-15T20:43:24.245Z,13.60
2023-04-15T20:46:07.056Z,13.50
2023-04-15T20:48:54.562Z,13.50
2023-04-15T20:51:37.731Z,13.50
2023-04-15T20:54:14.788Z,13.50
2023-04-15T20:56:52.382Z,13.50
2023-04-15T20:59:28.870Z,13.50
2023-04-15T21:02:06.223Z,13.50
2023-04-15T21:04:43.643Z,13.50
2023-04-15T21:07:20.288Z,13.50
2023-04-15T21:09:57.925Z,13.50
2023-04-15T21:12:34.877Z,13.40
2023-04-15T21:15:14.727Z,13.40
2023-04-15T21:17:51.400Z,13.40
2023-04-15T21:20:29.300Z,13.40
2023-04-15T21:23:05.765Z,13.30
2023-04-15T21:25:42.436Z,13.30
2023-04-15T21:28:19.751Z,13.30
2023-04-15T21:30:56.011Z,13.30
2023-04-15T21:33:33.388Z,13.30
2023-04-15T21:36:11.525Z,13.30
2023-04-15T21:38:51.583Z,13.26
2023-04-15T21:41:28.438Z,13.20
2023-04-15T21:44:08.925Z,13.20
2023-04-15T21:46:46.423Z,13.20
2023-04-15T21:49:25.354Z,13.20
2023-04-15T21:52:04.789Z,13.12
2023-04-15T21:54:40.795Z,13.10
2023-04-15T21:57:19.627Z,13.10
2023-04-15T21:59:55.531Z,13.10
2023-04-15T22:02:33.399Z,13.10
2023-04-15T22:05:11.053Z,13.10
2023-04-15T22:07:48.027Z,13.10
2023-04-15T22:10:25.718Z,13.10
2023-04-15T22:13:04.460Z,13.10
2023-04-15T22:15:42.302Z,13.04
2023-04-15T22:18:19.540Z,13.00
2023-04-15T22:20:56.420Z,13.00
2023-04-15T22:23:33.617Z,13.00
2023-04-15T22:26:12.602Z,13.00
2023-04-15T22:28:49.804Z,13.00
2023-04-15T22:31:26.845Z,13.00
2023-04-15T22:34:03.996Z,13.08
2023-04-15T22:36:40.761Z,13.10
2023-04-15T22:39:16.956Z,13.10
2023-04-15T22:41:53.972Z,13.10
2023-04-15T22:44:30.909Z,13.10
2023-04-15T22:47:07.867Z,13.10
2023-04-15T22:49:45.010Z,13.10
2023-04-15T22:52:29.947Z,13.10
2023-04-15T22:55:06.997Z,13.10
2023-04-15T22:57:42.901Z,13.10
2023-04-15T23:00:22.457Z,13.10
2023-04-15T23:03:00.231Z,13.10
2023-04-15T23:05:38.744Z,13.14
2023-04-15T23:08:15.671Z,13.10
2023-04-15T23:10:52.855Z,13.20
2023-04-15T23:13:30.380Z,13.14
2023-04-15T23:16:08.130Z,13.10
2023-04-15T23:18:45.638Z,13.10
2023-04-15T23:21:25.495Z,13.10
2023-04-15T23:24:02.782Z,13.10
2023-04-15T23:26:39.700Z,13.10
2023-04-15T23:29:18.237Z,13.00
2023-04-15T23:31:55.025Z,13.00
2023-04-15T23:34:31.937Z,13.00
2023-04-15T23:37:08.851Z,13.00
2023-04-15T23:39:45.357Z,13.00
2023-04-15T23:42:23.022Z,12.96
2023-04-15T23:44:59.308Z,12.90
2023-04-15T23:47:41.604Z,12.90
2023-04-15T23:50:19.198Z,12.90
2023-04-15T23:52:56.834Z,12.90
2023-04-15T23:55:34.483Z,12.90
2023-04-15T23:58:11.149Z,12.90
